Time;durP1;ratioP1;P1;durP2;ratioP2;P2;SDS_P1;SDS_P2;PMS_P1;PMS_P2;Temp;Humidity;BMP_temperature;BMP_pressure;BME280_temperature;BME280_humidity;BME280_pressure;Samples;Min_cycle;Max_cycle;Signal;HPM_P1;HPM_P2
2022/05/12 00:01:59;;;;;;;11.50;9.40;;;17.20;99.90;;;;;;5051820;28;20889;-68
2022/05/12 00:04:28;;;;;;;12.70;10.30;;;17.10;99.90;;;;;;5051954;28;20449;-69
2022/05/12 00:06:56;;;;;;;10.93;9.73;;;17.00;99.90;;;;;;5051761;28;20450;-68
2022/05/12 00:09:23;;;;;;;11.90;9.87;;;17.00;99.90;;;;;;5052134;28;20528;-67
2022/05/12 00:11:50;;;;;;;11.30;9.90;;;17.00;99.90;;;;;;5051943;28;20477;-67
2022/05/12 00:14:18;;;;;;;12.50;9.70;;;16.80;99.90;;;;;;5051842;28;20458;-69
2022/05/12 00:16:45;;;;;;;12.63;9.40;;;16.70;99.90;;;;;;5037067;28;21041;-68
2022/05/12 00:19:13;;;;;;;12.87;9.80;;;16.70;99.90;;;;;;5031913;28;20473;-69
2022/05/12 00:21:41;;;;;;;11.40;10.20;;;16.70;99.90;;;;;;5031721;28;20887;-67
2022/05/12 00:24:09;;;;;;;16.60;10.83;;;16.70;99.90;;;;;;5031988;28;20451;-68
2022/05/12 00:26:37;;;;;;;16.47;11.13;;;16.60;99.90;;;;;;5031939;28;20454;-68
2022/05/12 00:29:07;;;;;;;11.33;10.00;;;16.60;99.90;;;;;;5031570;28;20463;-67
2022/05/12 00:31:37;;;;;;;13.23;10.17;;;16.50;99.90;;;;;;5030132;28;20470;-66
2022/05/12 00:34:04;;;;;;;14.70;10.57;;;16.60;99.90;;;;;;5031651;28;20463;-67
2022/05/12 00:36:32;;;;;;;16.00;10.27;;;16.60;99.90;;;;;;5031340;28;21061;-68
2022/05/12 00:39:00;;;;;;;12.93;10.53;;;16.50;99.90;;;;;;5031998;28;20482;-67
2022/05/12 00:41:27;;;;;;;12.17;10.13;;;16.50;99.90;;;;;;5031139;28;20491;-67
2022/05/12 00:43:59;;;;;;;13.23;10.40;;;16.60;99.90;;;;;;5031277;28;20451;-66
2022/05/12 00:46:29;;;;;;;16.50;11.10;;;16.50;99.90;;;;;;5031264;28;20920;-69
2022/05/12 00:49:01;;;;;;;12.80;11.20;;;16.50;99.90;;;;;;5036423;28;20801;-66
2022/05/12 00:51:36;;;;;;;15.43;11.73;;;16.50;99.90;;;;;;5051060;28;20500;-68
2022/05/12 00:54:08;;;;;;;15.00;13.03;;;16.50;99.90;;;;;;5050990;28;20899;-69
2022/05/12 00:56:36;;;;;;;16.17;13.40;;;16.50;99.90;;;;;;5050888;28;20482;-67
2022/05/12 00:59:09;;;;;;;15.03;12.37;;;16.50;99.90;;;;;;5051176;28;20461;-70
2022/05/12 01:01:38;;;;;;;13.93;12.50;;;16.40;99.90;;;;;;5051062;28;20469;-65
2022/05/12 01:04:06;;;;;;;13.90;11.37;;;16.40;99.90;;;;;;5051001;28;20956;-69
2022/05/12 01:06:34;;;;;;;15.83;11.33;;;16.40;99.90;;;;;;5050493;28;20484;-67
2022/05/12 01:09:01;;;;;;;13.93;11.23;;;16.50;99.90;;;;;;5050843;28;20450;-69
2022/05/12 01:11:29;;;;;;;13.60;11.13;;;16.60;99.90;;;;;;5050527;28;20543;-69
2022/05/12 01:14:01;;;;;;;13.27;11.27;;;16.60;99.90;;;;;;5051131;28;20472;-70
2022/05/12 01:16:45;;;;;;;11.53;10.33;;;16.50;99.90;;;;;;5050686;28;20493;-68
2022/05/12 01:19:16;;;;;;;12.47;11.30;;;16.50;99.90;;;;;;5050259;28;20997;-69
2022/05/12 01:21:44;;;;;;;12.60;9.27;;;16.50;99.90;;;;;;5050625;28;20481;-69
2022/05/12 01:24:13;;;;;;;11.87;9.67;;;16.50;99.90;;;;;;5050579;28;20456;-66
2022/05/12 01:26:40;;;;;;;16.00;10.30;;;16.40;99.90;;;;;;5050493;28;20815;-68
2022/05/12 01:29:08;;;;;;;11.80;9.83;;;16.50;99.90;;;;;;5050502;28;20457;-67
2022/05/12 01:31:36;;;;;;;10.93;9.40;;;16.40;99.90;;;;;;5049852;28;20480;-69
2022/05/12 01:34:07;;;;;;;10.07;8.10;;;16.30;99.90;;;;;;5050139;28;20453;-67
2022/05/12 01:36:34;;;;;;;11.50;9.60;;;16.00;99.90;;;;;;5050159;28;20490;-68
2022/05/12 01:39:02;;;;;;;10.13;8.53;;;16.00;99.90;;;;;;5050447;28;20446;-66
2022/05/12 01:41:30;;;;;;;11.30;8.67;;;16.10;99.90;;;;;;5049670;28;20501;-68
2022/05/12 01:44:00;;;;;;;13.57;10.00;;;16.10;99.90;;;;;;5050013;28;20446;-69
2022/05/12 01:46:27;;;;;;;11.93;10.40;;;16.10;99.90;;;;;;5050111;28;20581;-67
2022/05/12 01:48:54;;;;;;;12.60;9.10;;;16.10;99.90;;;;;;5049624;28;20461;-66
2022/05/12 01:51:21;;;;;;;10.90;8.77;;;16.10;99.90;;;;;;5049899;28;20465;-69
2022/05/12 01:53:48;;;;;;;11.47;9.07;;;16.10;99.90;;;;;;5050134;28;20553;-66
2022/05/12 01:56:15;;;;;;;10.90;9.03;;;16.00;99.90;;;;;;5049493;28;20493;-69
2022/05/12 01:58:44;;;;;;;10.67;8.10;;;16.00;99.90;;;;;;5049766;28;20449;-67
2022/05/12 02:01:11;;;;;;;11.70;9.63;;;16.10;99.90;;;;;;5049620;28;20470;-68
2022/05/12 02:03:38;;;;;;;13.83;8.90;;;16.00;99.90;;;;;;5049706;28;20550;-67
2022/05/12 02:06:05;;;;;;;12.73;10.03;;;16.10;99.90;;;;;;5049735;28;20446;-66
2022/05/12 02:08:32;;;;;;;10.40;9.30;;;16.00;99.90;;;;;;5049681;28;20529;-67
2022/05/12 02:11:00;;;;;;;10.30;9.20;;;16.00;99.90;;;;;;5048940;28;20462;-69
2022/05/12 02:13:27;;;;;;;11.37;8.50;;;16.00;99.90;;;;;;5049634;28;20446;-67
2022/05/12 02:15:57;;;;;;;14.20;8.83;;;16.00;99.90;;;;;;5049523;28;20551;-67
2022/05/12 02:18:25;;;;;;;13.10;8.57;;;15.90;99.90;;;;;;5049652;28;20872;-66
2022/05/12 02:20:53;;;;;;;11.90;7.93;;;15.90;99.90;;;;;;5049203;28;20503;-66
2022/05/12 02:23:21;;;;;;;10.17;8.70;;;15.80;99.90;;;;;;5049503;28;20506;-66
2022/05/12 02:25:48;;;;;;;10.93;8.57;;;15.80;99.90;;;;;;5049443;28;20469;-66
2022/05/12 02:28:15;;;;;;;10.10;7.57;;;15.80;99.90;;;;;;5049389;28;20462;-66
2022/05/12 02:30:42;;;;;;;10.93;8.70;;;15.80;99.90;;;;;;5049175;28;20837;-68
2022/05/12 02:33:11;;;;;;;10.83;8.53;;;15.70;99.90;;;;;;5049045;28;20554;-69
2022/05/12 02:35:39;;;;;;;16.67;8.00;;;15.70;99.90;;;;;;5049254;28;20458;-66
2022/05/12 02:38:08;;;;;;;11.70;8.23;;;15.60;99.90;;;;;;5049466;28;20811;-63
2022/05/12 02:40:35;;;;;;;12.67;7.97;;;15.70;99.90;;;;;;5048761;28;20450;-63
2022/05/12 02:43:02;;;;;;;10.00;8.67;;;15.80;99.90;;;;;;5049051;28;20485;-63
2022/05/12 02:45:30;;;;;;;10.57;8.13;;;15.80;99.90;;;;;;5049269;28;20449;-61
2022/05/12 02:47:57;;;;;;;11.00;7.67;;;15.70;99.90;;;;;;5049038;28;20457;-64
2022/05/12 02:50:26;;;;;;;12.03;8.90;;;15.40;99.90;;;;;;5048934;28;20458;-63
2022/05/12 02:52:53;;;;;;;10.10;7.17;;;15.30;99.90;;;;;;5049012;28;20454;-65
2022/05/12 02:55:20;;;;;;;10.93;8.50;;;15.30;99.90;;;;;;5050542;28;20461;-62
2022/05/12 02:57:47;;;;;;;13.63;8.30;;;15.30;99.90;;;;;;5053241;28;20488;-61
2022/05/12 03:00:18;;;;;;;9.80;8.70;;;15.20;99.90;;;;;;5053363;28;20453;-62
2022/05/12 03:02:46;;;;;;;10.37;8.30;;;15.20;99.90;;;;;;5053228;28;20473;-65
2022/05/12 03:05:13;;;;;;;10.63;8.43;;;15.30;99.90;;;;;;5053307;28;20449;-63
2022/05/12 03:07:43;;;;;;;14.13;9.43;;;15.30;99.90;;;;;;5053190;28;20792;-63
2022/05/12 03:10:12;;;;;;;12.40;9.30;;;15.30;99.90;;;;;;5052843;28;20457;-66
2022/05/12 03:12:39;;;;;;;12.20;9.00;;;15.30;99.90;;;;;;5053071;28;20822;-63
2022/05/12 03:15:08;;;;;;;10.77;9.20;;;15.30;99.90;;;;;;5053205;28;20620;-66
2022/05/12 03:17:35;;;;;;;10.23;8.43;;;15.40;99.90;;;;;;5052843;28;20782;-64
2022/05/12 03:20:04;;;;;;;14.20;9.60;;;15.50;99.90;;;;;;5052881;28;20485;-63
2022/05/12 03:22:31;;;;;;;18.57;14.10;;;15.40;99.90;;;;;;5052696;28;20481;-64
2022/05/12 03:24:59;;;;;;;17.37;8.90;;;15.30;99.90;;;;;;5052790;28;20452;-63
2022/05/12 03:27:26;;;;;;;13.07;8.13;;;15.30;99.90;;;;;;5052867;28;21019;-62
2022/05/12 03:29:53;;;;;;;8.40;6.73;;;15.30;99.90;;;;;;5052961;28;20457;-64
2022/05/12 03:32:21;;;;;;;9.73;7.13;;;15.30;99.90;;;;;;5052875;28;20484;-66
2022/05/12 03:34:48;;;;;;;11.97;7.77;;;15.30;99.90;;;;;;5052905;28;20460;-64
2022/05/12 03:37:15;;;;;;;9.23;6.80;;;15.20;99.90;;;;;;5052768;28;20486;-63
2022/05/12 03:39:42;;;;;;;9.03;6.43;;;15.30;99.90;;;;;;5052561;28;20450;-65
2022/05/12 03:42:12;;;;;;;8.63;6.43;;;15.30;99.90;;;;;;5052058;28;20493;-63
2022/05/12 03:44:49;;;;;;;8.63;6.33;;;15.20;99.90;;;;;;5052739;28;20484;-66
2022/05/12 03:47:19;;;;;;;9.40;6.43;;;15.20;99.90;;;;;;5052003;28;20794;-65
2022/05/12 03:49:47;;;;;;;8.37;5.60;;;15.30;99.90;;;;;;5052290;28;20464;-63
2022/05/12 03:52:15;;;;;;;9.13;5.90;;;15.20;99.90;;;;;;5051880;28;20470;-66
2022/05/12 03:54:42;;;;;;;7.77;5.60;;;15.20;99.90;;;;;;5052323;28;20884;-64
2022/05/12 03:57:12;;;;;;;7.33;5.60;;;15.20;99.90;;;;;;5052451;28;20489;-67
2022/05/12 03:59:41;;;;;;;8.87;6.00;;;15.20;99.90;;;;;;5052310;28;20461;-68
2022/05/12 04:02:10;;;;;;;7.50;6.07;;;15.20;99.90;;;;;;5052014;28;20498;-62
2022/05/12 04:04:37;;;;;;;7.90;5.70;;;15.30;99.90;;;;;;5052433;28;20456;-62
2022/05/12 04:07:05;;;;;;;8.07;6.00;;;15.20;99.90;;;;;;5051683;28;20454;-67
2022/05/12 04:09:32;;;;;;;9.83;6.60;;;15.30;99.90;;;;;;5052271;28;20490;-66
2022/05/12 04:11:59;;;;;;;8.37;6.23;;;15.30;99.90;;;;;;5052024;28;20485;-67
2022/05/12 04:14:27;;;;;;;10.97;7.60;;;15.30;99.90;;;;;;5052153;28;20462;-67
2022/05/12 04:16:54;;;;;;;8.30;6.70;;;15.20;99.90;;;;;;5051499;28;20481;-67
2022/05/12 04:19:21;;;;;;;10.57;6.30;;;15.20;99.90;;;;;;5051723;28;20484;-68
2022/05/12 04:21:49;;;;;;;8.37;7.10;;;15.20;99.90;;;;;;5051789;28;20470;-65
2022/05/12 04:24:16;;;;;;;13.00;8.20;;;15.30;99.90;;;;;;5051431;28;20464;-63
2022/05/12 04:26:43;;;;;;;11.93;8.50;;;15.20;99.90;;;;;;5052007;28;20442;-63
2022/05/12 04:29:11;;;;;;;10.30;7.80;;;15.30;99.90;;;;;;5051576;28;20454;-63
2022/05/12 04:31:40;;;;;;;9.80;7.90;;;15.30;99.90;;;;;;5052376;28;20938;-68
2022/05/12 04:36:53;;;;;;;10.37;8.60;;;15.40;99.90;;;;;;5055022;28;20480;-63
2022/05/12 04:39:20;;;;;;;11.30;8.33;;;15.60;99.90;;;;;;5051823;28;20820;-65
2022/05/12 04:41:48;;;;;;;13.17;8.83;;;15.80;99.90;;;;;;5051138;28;20493;-68
2022/05/12 04:44:15;;;;;;;9.90;7.70;;;15.90;99.90;;;;;;5051449;28;20441;-65
2022/05/12 04:46:44;;;;;;;10.70;8.33;;;16.00;99.90;;;;;;5051267;28;20516;-65
2022/05/12 04:49:13;;;;;;;12.03;7.33;;;16.00;99.90;;;;;;5050742;28;20484;-63
2022/05/12 04:51:41;;;;;;;9.63;8.00;;;16.20;99.90;;;;;;5051337;28;20453;-66
2022/05/12 04:54:09;;;;;;;10.47;8.70;;;16.30;99.90;;;;;;5050917;28;20453;-64
2022/05/12 04:56:37;;;;;;;10.60;8.60;;;16.40;99.90;;;;;;5050740;28;20449;-64
2022/05/12 04:59:05;;;;;;;8.67;7.73;;;16.60;99.90;;;;;;5050845;28;21017;-63
2022/05/12 05:01:32;;;;;;;9.70;7.90;;;16.70;99.90;;;;;;5050401;28;20490;-66
2022/05/12 05:04:01;;;;;;;11.07;8.33;;;16.70;99.90;;;;;;5051116;28;20456;-66
2022/05/12 05:06:28;;;;;;;13.20;8.90;;;16.80;99.90;;;;;;5050985;28;21124;-63
2022/05/12 05:08:55;;;;;;;12.10;8.87;;;16.90;99.90;;;;;;5050544;28;20529;-62
2022/05/12 05:11:23;;;;;;;10.60;8.50;;;17.10;99.90;;;;;;5050519;28;20809;-66
2022/05/12 05:13:50;;;;;;;11.73;9.13;;;17.20;99.90;;;;;;5050556;28;20817;-63
2022/05/12 05:16:18;;;;;;;10.30;8.37;;;17.30;99.90;;;;;;5050456;28;20458;-65
2022/05/12 05:18:45;;;;;;;12.37;8.07;;;17.50;99.90;;;;;;5050023;28;20607;-64
2022/05/12 05:21:14;;;;;;;9.10;8.10;;;17.60;99.90;;;;;;5050367;28;20552;-64
2022/05/12 05:23:41;;;;;;;10.53;9.43;;;17.70;99.90;;;;;;5050483;28;20457;-66
2022/05/12 05:26:09;;;;;;;17.17;12.37;;;17.60;99.90;;;;;;5050601;28;20454;-63
2022/05/12 05:28:36;;;;;;;10.30;9.20;;;17.70;99.90;;;;;;5050605;28;20511;-63
2022/05/12 05:31:04;;;;;;;11.00;9.53;;;17.70;99.90;;;;;;5049723;28;20536;-64
2022/05/12 05:33:31;;;;;;;15.60;10.97;;;17.90;99.90;;;;;;5050172;28;20453;-65
2022/05/12 05:35:59;;;;;;;12.47;11.17;;;17.90;99.90;;;;;;5050171;28;20453;-63
2022/05/12 05:38:27;;;;;;;14.83;10.60;;;18.00;99.90;;;;;;5050215;28;20490;-63
2022/05/12 05:40:55;;;;;;;17.17;12.17;;;17.90;99.90;;;;;;5049727;28;20473;-63
2022/05/12 05:43:23;;;;;;;14.53;11.50;;;17.80;99.90;;;;;;5049985;28;20829;-63
2022/05/12 05:45:51;;;;;;;13.20;10.30;;;17.70;99.90;;;;;;5050221;28;20964;-62
2022/05/12 05:48:18;;;;;;;13.77;11.83;;;17.70;99.90;;;;;;5049839;28;20482;-65
2022/05/12 05:53:36;;;;;;;13.83;10.40;;;17.90;99.90;;;;;;5050100;28;20430;-64
2022/05/12 05:56:06;;;;;;;13.90;10.73;;;18.10;99.90;;;;;;5049960;28;20454;-65
2022/05/12 05:58:33;;;;;;;12.37;11.07;;;18.00;99.90;;;;;;5049494;28;20486;-63
2022/05/12 06:01:01;;;;;;;17.43;11.20;;;18.10;99.90;;;;;;5049814;28;20570;-65
2022/05/12 06:03:28;;;;;;;13.30;10.77;;;18.30;99.90;;;;;;5049786;28;20473;-62
2022/05/12 06:05:56;;;;;;;11.67;9.50;;;18.40;99.90;;;;;;5049810;28;20542;-64
2022/05/12 06:08:23;;;;;;;12.97;11.20;;;18.40;99.90;;;;;;5049454;28;20861;-64
2022/05/12 06:10:51;;;;;;;14.40;11.10;;;18.40;99.90;;;;;;5049630;28;20477;-63
2022/05/12 06:13:18;;;;;;;13.63;11.30;;;18.30;99.90;;;;;;5049342;28;20454;-62
2022/05/12 06:15:45;;;;;;;15.80;10.83;;;18.70;99.90;;;;;;5049639;28;20458;-65
2022/05/12 06:18:14;;;;;;;11.87;9.83;;;18.80;99.90;;;;;;5049435;28;20481;-64
2022/05/12 06:20:43;;;;;;;10.63;8.83;;;18.90;99.90;;;;;;5049432;28;20478;-62
2022/05/12 06:23:11;;;;;;;13.07;9.13;;;19.10;99.90;;;;;;5049444;28;20926;-64
2022/05/12 06:25:38;;;;;;;11.73;9.17;;;19.30;99.90;;;;;;5049059;28;20811;-65
2022/05/12 06:28:08;;;;;;;10.30;8.97;;;19.40;99.90;;;;;;5049152;28;20519;-65
2022/05/12 06:30:36;;;;;;;11.97;9.17;;;19.70;99.90;;;;;;5048982;28;20446;-65
2022/05/12 06:33:04;;;;;;;15.53;9.00;;;20.00;99.90;;;;;;5049104;28;20465;-67
2022/05/12 06:35:31;;;;;;;10.03;8.20;;;20.20;99.90;;;;;;5049349;28;20453;-63
2022/05/12 06:37:58;;;;;;;11.50;9.23;;;20.40;99.90;;;;;;5049186;28;20486;-64
2022/05/12 06:40:25;;;;;;;12.17;9.27;;;20.50;99.90;;;;;;5048989;28;20786;-63
2022/05/12 06:42:53;;;;;;;11.83;9.37;;;20.70;99.90;;;;;;5048768;28;20488;-66
2022/05/12 06:45:23;;;;;;;12.50;9.70;;;20.90;99.90;;;;;;5049052;28;20453;-63
2022/05/12 06:47:52;;;;;;;14.90;12.80;;;21.10;99.90;;;;;;5049572;28;20957;-64
2022/05/12 06:50:23;;;;;;;13.63;11.43;;;21.20;99.90;;;;;;5048829;28;20461;-65
2022/05/12 06:52:51;;;;;;;13.97;10.97;;;21.20;99.90;;;;;;5048765;28;20445;-64
2022/05/12 06:55:19;;;;;;;12.73;11.20;;;21.20;99.90;;;;;;5048815;28;20799;-66
2022/05/12 06:57:47;;;;;;;14.90;11.53;;;21.60;99.90;;;;;;5048536;28;20569;-66
2022/05/12 07:00:16;;;;;;;17.00;12.57;;;21.90;99.90;;;;;;5048787;28;20454;-64
2022/05/12 07:02:45;;;;;;;12.07;10.83;;;22.00;99.90;;;;;;5048703;28;20473;-66
2022/05/12 07:05:13;;;;;;;14.33;11.67;;;22.00;99.90;;;;;;5048365;28;20489;-62
2022/05/12 07:07:42;;;;;;;13.60;12.20;;;22.10;99.90;;;;;;5048814;28;20446;-63
2022/05/12 07:10:10;;;;;;;16.93;11.30;;;22.10;99.90;;;;;;5048803;28;20964;-63
2022/05/12 07:12:37;;;;;;;14.67;12.27;;;22.20;99.90;;;;;;5048949;28;20473;-63
2022/05/12 07:15:05;;;;;;;16.23;12.37;;;22.10;99.90;;;;;;5049175;28;20993;-64
2022/05/12 07:17:37;;;;;;;16.70;12.13;;;22.00;99.90;;;;;;5048912;28;20969;-63
2022/05/12 07:28:19;;;;;;;15.10;13.20;;;22.80;99.90;;;;;;5048470;28;20479;-64
2022/05/12 07:31:05;;;;;;;14.10;12.60;;;22.80;99.90;;;;;;5048560;28;20477;-67
2022/05/12 07:33:34;;;;;;;18.20;14.60;;;22.90;99.90;;;;;;5048942;28;20531;-64
2022/05/12 07:36:03;;;;;;;15.80;13.27;;;23.00;99.90;;;;;;5048772;28;20874;-67
2022/05/12 07:38:31;;;;;;;17.30;14.50;;;23.10;99.50;;;;;;5048780;28;21008;-63
2022/05/12 07:40:58;;;;;;;14.20;11.97;;;23.20;99.20;;;;;;5048601;28;20482;-64
2022/05/12 07:43:25;;;;;;;17.33;13.47;;;23.30;98.80;;;;;;5052430;28;20468;-63
2022/05/12 07:45:52;;;;;;;14.70;13.20;;;23.50;98.00;;;;;;5052593;28;20946;-64
2022/05/12 07:48:19;;;;;;;15.43;12.90;;;23.70;97.40;;;;;;5052611;28;20445;-65
2022/05/12 07:50:46;;;;;;;15.50;13.33;;;23.70;96.10;;;;;;5051993;28;20488;-64
2022/05/12 07:53:15;;;;;;;13.33;11.80;;;23.70;95.80;;;;;;5051886;28;20453;-66
2022/05/12 07:55:42;;;;;;;14.10;12.60;;;23.90;95.90;;;;;;5052181;28;20858;-63
2022/05/12 07:58:09;;;;;;;13.43;12.03;;;23.90;96.10;;;;;;5051991;28;20568;-65
2022/05/12 08:00:36;;;;;;;13.10;11.80;;;24.00;96.00;;;;;;5051861;28;20926;-64
2022/05/12 08:03:04;;;;;;;15.23;13.60;;;24.00;96.00;;;;;;5052004;28;20954;-62
2022/05/12 08:05:31;;;;;;;15.43;12.13;;;23.90;95.20;;;;;;5051922;28;20482;-64
2022/05/12 08:07:58;;;;;;;13.93;12.47;;;24.10;95.50;;;;;;5051735;28;20450;-66
2022/05/12 08:10:27;;;;;;;14.03;12.43;;;24.40;95.30;;;;;;5051496;28;20908;-64
2022/05/12 08:12:54;;;;;;;14.00;11.63;;;24.70;95.70;;;;;;5051669;28;20874;-63
2022/05/12 08:15:24;;;;;;;15.27;10.87;;;25.00;94.20;;;;;;5051817;28;20449;-65
2022/05/12 08:17:52;;;;;;;14.43;11.73;;;25.10;94.30;;;;;;5044724;28;20494;-65
2022/05/12 08:20:19;;;;;;;15.23;11.53;;;25.30;93.30;;;;;;5031484;28;20935;-64
2022/05/12 08:22:46;;;;;;;14.90;11.20;;;25.30;91.40;;;;;;5031537;28;20927;-63
2022/05/12 08:25:14;;;;;;;12.30;10.07;;;25.40;91.40;;;;;;5031392;28;20466;-65
2022/05/12 08:27:43;;;;;;;15.57;12.73;;;25.70;90.90;;;;;;5031686;28;20462;-64
2022/05/12 08:30:15;;;;;;;12.27;10.77;;;25.90;90.40;;;;;;5031676;28;20458;-67
2022/05/12 08:32:43;;;;;;;16.53;11.53;;;26.10;88.20;;;;;;5031513;28;20470;-66
2022/05/12 08:35:10;;;;;;;13.30;10.50;;;26.10;88.00;;;;;;5031465;28;20482;-64
2022/05/12 08:37:38;;;;;;;13.07;9.23;;;26.30;85.90;;;;;;5031449;28;20458;-66
2022/05/12 08:40:07;;;;;;;10.60;9.50;;;26.50;82.90;;;;;;5031276;28;20459;-65
2022/05/12 08:42:42;;;;;;;11.90;10.23;;;26.50;81.30;;;;;;5030946;28;20491;-65
2022/05/12 08:45:12;;;;;;;16.53;10.80;;;26.60;81.40;;;;;;5031412;28;20454;-63
2022/05/12 08:47:44;;;;;;;14.30;10.37;;;26.60;80.40;;;;;;5031070;28;21018;-64
2022/05/12 08:50:20;;;;;;;12.07;8.63;;;26.70;80.30;;;;;;5046152;28;20509;-65
2022/05/12 08:52:50;;;;;;;13.33;9.83;;;26.80;77.20;;;;;;5049999;28;20801;-63
2022/05/12 08:55:20;;;;;;;10.20;8.80;;;26.90;76.30;;;;;;5051335;28;20538;-66
2022/05/12 08:57:54;;;;;;;13.97;8.40;;;27.10;76.80;;;;;;5051033;28;20457;-63
2022/05/12 09:00:23;;;;;;;10.90;7.83;;;27.20;75.60;;;;;;5050784;28;20450;-65
2022/05/12 09:03:01;;;;;;;10.13;8.30;;;27.30;75.40;;;;;;5050872;28;20536;-64
2022/05/12 09:05:30;;;;;;;12.57;8.10;;;27.50;74.00;;;;;;5050702;28;20461;-64
2022/05/12 09:08:06;;;;;;;9.63;6.07;;;27.40;69.90;;;;;;5051039;28;20549;-65
2022/05/12 09:10:49;;;;;;;7.10;5.27;;;27.30;67.30;;;;;;5050369;28;20485;-66
2022/05/12 09:13:22;;;;;;;12.33;5.80;;;27.20;64.30;;;;;;5050621;28;20450;-65
2022/05/12 09:15:59;;;;;;;11.60;5.80;;;27.00;64.10;;;;;;5050706;28;20449;-65
2022/05/12 09:18:31;;;;;;;9.50;7.00;;;27.20;65.60;;;;;;5050406;28;20504;-65
2022/05/12 09:21:01;;;;;;;12.60;5.00;;;27.20;64.60;;;;;;5050308;28;20473;-65
2022/05/12 09:23:28;;;;;;;8.90;6.53;;;27.10;63.50;;;;;;5050556;28;20457;-64
2022/05/12 09:25:55;;;;;;;7.10;5.50;;;27.30;65.30;;;;;;5050140;28;20466;-64
2022/05/12 09:28:29;;;;;;;8.40;6.20;;;27.30;64.00;;;;;;5050550;28;20446;-66
2022/05/12 09:31:02;;;;;;;7.17;5.87;;;27.30;62.90;;;;;;5050417;28;20984;-64
2022/05/12 09:33:33;;;;;;;6.73;5.23;;;27.40;62.90;;;;;;5049889;28;20550;-65
2022/05/12 09:36:03;;;;;;;6.83;5.30;;;27.30;62.00;;;;;;5050218;28;20854;-63
2022/05/12 09:38:30;;;;;;;6.03;5.00;;;27.30;61.00;;;;;;5050233;28;20501;-63
2022/05/12 09:40:58;;;;;;;10.40;5.20;;;27.00;62.40;;;;;;5049775;28;20477;-64
2022/05/12 09:43:29;;;;;;;8.40;5.53;;;26.90;61.60;;;;;;5049933;28;20469;-63
2022/05/12 09:46:04;;;;;;;9.03;6.00;;;27.20;62.20;;;;;;5049618;28;20462;-65
2022/05/12 09:48:33;;;;;;;8.10;5.00;;;27.40;61.20;;;;;;5049446;28;20532;-64
2022/05/12 09:51:30;;;;;;;7.03;5.27;;;27.60;61.50;;;;;;5049893;28;20512;-66
2022/05/12 09:54:16;;;;;;;6.63;5.00;;;27.80;61.40;;;;;;5050026;28;20484;-61
2022/05/12 09:56:46;;;;;;;9.00;4.97;;;27.90;60.10;;;;;;5049787;28;20528;-66
2022/05/12 09:59:24;;;;;;;6.00;4.87;;;28.20;59.00;;;;;;5049943;28;20869;-63
2022/05/12 10:01:55;;;;;;;6.67;5.77;;;28.20;57.80;;;;;;5049736;28;20993;-64
2022/05/12 10:10:09;;;;;;;6.17;4.60;;;28.00;53.90;;;;;;5049845;28;20429;-63
2022/05/12 10:12:46;;;;;;;7.57;4.13;;;28.00;53.00;;;;;;5049656;28;20478;-65
2022/05/12 10:15:24;;;;;;;5.60;4.37;;;28.20;53.40;;;;;;5049501;28;20507;-66
2022/05/12 10:17:58;;;;;;;6.90;4.47;;;28.30;53.70;;;;;;5049352;28;20454;-65
2022/05/12 10:20:27;;;;;;;7.00;4.37;;;28.40;53.80;;;;;;5049462;28;20576;-66
2022/05/12 10:22:58;;;;;;;6.90;4.27;;;28.70;54.70;;;;;;5049498;28;20472;-65
2022/05/12 10:26:02;;;;;;;7.60;4.33;;;28.80;54.10;;;;;;5048828;28;20861;-65
2022/05/12 10:28:48;;;;;;;6.03;4.37;;;29.00;51.40;;;;;;5049260;28;20449;-62
2022/05/12 10:31:24;;;;;;;6.47;3.73;;;28.80;50.00;;;;;;5049239;28;20470;-66
2022/05/12 10:34:01;;;;;;;8.50;6.27;;;28.80;47.60;;;;;;5048790;28;20484;-65
2022/05/12 10:36:36;;;;;;;6.80;4.07;;;28.90;46.00;;;;;;5049060;28;20441;-63
2022/05/12 10:39:13;;;;;;;6.40;4.20;;;28.90;48.00;;;;;;5049322;28;20488;-62
2022/05/12 10:41:49;;;;;;;5.77;3.77;;;29.10;48.50;;;;;;5048456;28;20553;-64
2022/05/12 10:44:28;;;;;;;5.70;4.07;;;29.30;48.10;;;;;;5048795;28;20450;-65
2022/05/12 10:47:01;;;;;;;6.83;4.53;;;29.30;46.70;;;;;;5048890;28;20461;-66
2022/05/12 10:49:38;;;;;;;5.20;4.20;;;29.40;48.30;;;;;;5048675;28;20454;-65
2022/05/12 10:52:18;;;;;;;6.60;3.70;;;29.70;46.60;;;;;;5048434;28;20474;-63
2022/05/12 10:55:01;;;;;;;5.40;3.50;;;29.90;47.30;;;;;;5048516;28;20446;-65
2022/05/12 10:57:37;;;;;;;5.13;3.50;;;29.80;45.30;;;;;;5049020;28;20560;-62
2022/05/12 11:00:15;;;;;;;5.77;3.27;;;29.80;45.20;;;;;;5048685;28;20491;-64
2022/05/12 11:02:47;;;;;;;5.93;3.50;;;29.80;44.30;;;;;;5048698;28;21024;-63
2022/05/12 11:05:28;;;;;;;5.80;3.27;;;30.00;45.00;;;;;;5048862;28;20901;-64
2022/05/12 11:08:04;;;;;;;5.97;3.30;;;30.30;45.60;;;;;;5048929;28;20461;-63
2022/05/12 11:10:35;;;;;;;6.60;3.40;;;30.40;43.70;;;;;;5048912;28;20533;-64
2022/05/12 11:13:10;;;;;;;5.30;3.27;;;30.50;41.90;;;;;;5049142;28;20450;-64
2022/05/12 11:15:49;;;;;;;6.17;4.00;;;30.20;42.90;;;;;;5049185;28;20453;-64
2022/05/12 11:18:22;;;;;;;6.50;3.90;;;30.50;44.00;;;;;;5052891;28;20450;-65
2022/05/12 11:21:01;;;;;;;5.70;3.90;;;30.50;42.50;;;;;;5052800;28;20528;-66
2022/05/12 11:23:40;;;;;;;7.07;3.77;;;30.50;43.90;;;;;;5052848;28;20461;-65
2022/05/12 11:26:13;;;;;;;5.90;4.03;;;30.50;42.50;;;;;;5052509;28;20457;-66
2022/05/12 11:31:40;;;;;;;7.67;4.20;;;31.10;43.00;;;;;;5052787;28;20548;-66
2022/05/12 11:34:12;;;;;;;5.20;3.80;;;31.40;43.00;;;;;;5052658;28;20746;-64
2022/05/12 11:36:43;;;;;;;4.93;3.60;;;31.50;42.10;;;;;;5052468;28;20450;-66
2022/05/12 11:39:31;;;;;;;5.70;3.20;;;31.60;41.40;;;;;;5052093;28;20481;-65
2022/05/12 11:42:18;;;;;;;7.87;4.70;;;31.70;42.10;;;;;;5051725;28;20488;-66
2022/05/12 11:44:58;;;;;;;6.00;3.93;;;31.60;43.00;;;;;;5052211;28;20500;-64
2022/05/12 11:48:22;;;;;;;4.83;3.67;;;31.70;43.30;;;;;;5052178;28;20453;-66
2022/05/12 11:51:08;;;;;;;8.67;5.40;;;31.90;43.50;;;;;;4989797;28;20930;-67
2022/05/12 11:53:55;;;;;;;6.90;4.47;;;32.10;43.90;;;;;;5043755;28;20474;-67
2022/05/12 11:56:46;;;;;;;5.10;3.63;;;32.30;43.20;;;;;;5051406;28;20922;-64
2022/05/12 11:59:17;;;;;;;6.70;4.20;;;32.30;43.30;;;;;;5051599;28;20514;-65
2022/05/12 12:01:55;;;;;;;6.50;3.90;;;32.30;42.80;;;;;;5051380;28;20477;-64
2022/05/12 12:04:48;;;;;;;6.23;3.97;;;32.30;42.60;;;;;;5051651;28;20853;-63
2022/05/12 12:07:35;;;;;;;8.10;4.00;;;32.50;42.80;;;;;;5051859;28;20462;-63
2022/05/12 12:10:07;;;;;;;5.70;3.90;;;32.80;42.30;;;;;;5050706;28;20454;-64
2022/05/12 12:12:57;;;;;;;6.10;4.10;;;32.80;42.10;;;;;;5051929;28;20470;-63
2022/05/12 12:15:41;;;;;;;6.10;4.03;;;33.10;41.30;;;;;;5051341;28;20496;-65
2022/05/12 12:18:41;;;;;;;11.33;4.40;;;33.10;42.50;;;;;;5051352;28;20547;-62
2022/05/12 12:21:43;;;;;;;6.30;3.60;;;33.30;40.80;;;;;;5051898;28;20863;-63
2022/05/12 12:25:01;;;;;;;6.70;4.27;;;33.10;41.10;;;;;;5051416;28;20457;-63
2022/05/12 12:28:00;;;;;;;6.23;3.63;;;32.70;41.20;;;;;;5006179;28;20499;-67
2022/05/12 12:30:55;;;;;;;7.23;4.13;;;32.60;40.90;;;;;;5050968;28;20453;-62
2022/05/12 12:33:41;;;;;;;7.73;3.83;;;33.00;41.70;;;;;;5051241;28;20489;-65
2022/05/12 12:36:47;;;;;;;8.00;4.50;;;32.90;41.30;;;;;;5051419;28;20450;-63
2022/05/12 12:39:40;;;;;;;5.80;3.87;;;32.70;40.50;;;;;;5050973;28;21016;-64
2022/05/12 12:42:28;;;;;;;7.70;4.20;;;32.20;41.30;;;;;;5050516;28;20486;-64
2022/05/12 12:44:58;;;;;;;9.90;4.30;;;32.30;42.20;;;;;;5051296;28;20499;-63
2022/05/12 12:47:38;;;;;;;8.07;4.73;;;32.60;42.80;;;;;;5050969;28;20523;-65
2022/05/12 12:50:19;;;;;;;10.70;4.80;;;32.90;42.50;;;;;;5050540;28;20963;-67
2022/05/12 12:52:48;;;;;;;6.80;4.50;;;33.00;42.60;;;;;;5051196;28;21029;-66
2022/05/12 12:58:04;;;;;;;6.63;4.60;;;33.40;41.90;;;;;;5050706;28;20437;-69
2022/05/12 13:00:34;;;;;;;7.57;3.90;;;33.80;41.80;;;;;;5050432;28;20571;-66
2022/05/12 13:03:06;;;;;;;10.20;4.47;;;33.90;40.50;;;;;;5050982;28;20465;-64
2022/05/12 13:05:35;;;;;;;5.13;4.30;;;33.90;42.00;;;;;;5050810;28;20537;-68
2022/05/12 13:08:04;;;;;;;7.40;4.87;;;34.10;40.80;;;;;;5050493;28;20457;-67
2022/05/12 13:10:41;;;;;;;6.50;4.20;;;34.30;40.80;;;;;;5050546;28;20450;-67
2022/05/12 13:13:08;;;;;;;5.63;4.40;;;34.40;39.70;;;;;;5050773;28;20458;-69
2022/05/12 13:15:39;;;;;;;5.27;4.00;;;34.40;40.20;;;;;;5050569;28;20465;-65
2022/05/12 13:18:09;;;;;;;8.13;3.90;;;34.30;39.60;;;;;;5050193;28;20454;-64
2022/05/12 13:20:41;;;;;;;8.40;4.00;;;34.40;40.30;;;;;;5050369;28;20501;-65
2022/05/12 13:23:11;;;;;;;5.67;4.20;;;34.60;39.70;;;;;;5050375;28;20445;-66
2022/05/12 13:25:41;;;;;;;6.93;4.83;;;34.70;39.40;;;;;;5050406;28;20462;-68